Disclaimer

Please do not use the information listed here in-flight or in-navigation, as they are not provided to us by the airports but are provided by volunteers, so they might be outdated.

Search


Regions


Airport information page

Radio informations:
TAMPICO TWR - 118.3 MHz
TAMPICO APP - 120.3 MHz

Airport informations:
Latitude: 22° 17' 47.22" N
Longitude: 097° 51' 57.35" W
Elevation: 80 feet - 24 meters
Operating hours: Remarks
Operating agency: Civil government, landing fees and diplomatic clearance may be required
Timezone: UTC-6(-5DT) - First Sunday in April to the last Saturday in October
Fuel: 100/130 octane gasoline, leaded, MIL-L-5572F (GREEN)

100/130 MIL Spec, low lead, aviation gasoline (BLUE)

Runway information:
09/27 - 3937 x 98 feet< - >1200 x 30 meters
13/31 - 8366 x 148 feet< - >2550 x 45 meters
18/36 - 4265 x 98 feet< - >1300 x 30 meters

Recent METARs:
MMTM 191541Z 00000KT 4SM SCT020 BKN060 25/24 A3009 RMK 8/170 HZY
MMTM 191640Z 00000KT 5SM SCT020 BKN060 25/23 A3008 RMK 8/170 HZY
MMTM 191640Z 00000KT 5SM SCT020 BKN060 25/23 A3008 RMK 8/170 HZY

Airport on the map: